sensor_id;sensor_type;location;lat;lon;timestamp;temperature;humidity
68476;DHT22;55464;48.266;14.188;2022-09-06T00:00:15;18.60;75.00
68476;DHT22;55464;48.266;14.188;2022-09-06T00:02:42;18.60;75.20
68476;DHT22;55464;48.266;14.188;2022-09-06T00:05:09;18.50;75.20
68476;DHT22;55464;48.266;14.188;2022-09-06T00:07:36;18.60;75.30
68476;DHT22;55464;48.266;14.188;2022-09-06T00:10:02;18.60;75.30
68476;DHT22;55464;48.266;14.188;2022-09-06T00:12:29;18.60;75.20
68476;DHT22;55464;48.266;14.188;2022-09-06T00:14:55;18.70;75.30
68476;DHT22;55464;48.266;14.188;2022-09-06T00:17:21;18.80;75.50
68476;DHT22;55464;48.266;14.188;2022-09-06T00:19:47;18.80;75.70
68476;DHT22;55464;48.266;14.188;2022-09-06T00:22:12;18.90;75.50
68476;DHT22;55464;48.266;14.188;2022-09-06T00:24:38;18.90;75.60
68476;DHT22;55464;48.266;14.188;2022-09-06T00:27:05;18.90;75.70
68476;DHT22;55464;48.266;14.188;2022-09-06T00:29:31;18.90;75.80
68476;DHT22;55464;48.266;14.188;2022-09-06T00:31:57;18.90;75.90
68476;DHT22;55464;48.266;14.188;2022-09-06T00:34:24;19.00;75.90
68476;DHT22;55464;48.266;14.188;2022-09-06T00:36:50;19.00;75.80
68476;DHT22;55464;48.266;14.188;2022-09-06T00:39:15;18.90;75.80
68476;DHT22;55464;48.266;14.188;2022-09-06T00:41:41;19.00;75.90
68476;DHT22;55464;48.266;14.188;2022-09-06T00:44:07;18.90;76.00
68476;DHT22;55464;48.266;14.188;2022-09-06T00:46:33;19.00;76.10
68476;DHT22;55464;48.266;14.188;2022-09-06T00:49:09;19.00;76.10
68476;DHT22;55464;48.266;14.188;2022-09-06T00:51:37;19.00;75.90
68476;DHT22;55464;48.266;14.188;2022-09-06T00:54:04;18.90;75.90
68476;DHT22;55464;48.266;14.188;2022-09-06T00:56:32;18.90;75.90
68476;DHT22;55464;48.266;14.188;2022-09-06T00:58:59;18.90;75.70
68476;DHT22;55464;48.266;14.188;2022-09-06T01:01:26;18.80;75.70
68476;DHT22;55464;48.266;14.188;2022-09-06T01:03:52;18.80;75.80
68476;DHT22;55464;48.266;14.188;2022-09-06T01:20:11;18.40;75.90
68476;DHT22;55464;48.266;14.188;2022-09-06T01:33:52;18.20;76.40
68476;DHT22;55464;48.266;14.188;2022-09-06T01:36:23;18.10;76.50
68476;DHT22;55464;48.266;14.188;2022-09-06T01:38:50;18.20;76.60
68476;DHT22;55464;48.266;14.188;2022-09-06T01:41:16;18.10;76.60
68476;DHT22;55464;48.266;14.188;2022-09-06T01:43:45;18.10;76.70
68476;DHT22;55464;48.266;14.188;2022-09-06T01:46:34;18.00;76.90
68476;DHT22;55464;48.266;14.188;2022-09-06T01:57:31;18.10;77.00
68476;DHT22;55464;48.266;14.188;2022-09-06T02:02:34;18.00;77.40
68476;DHT22;55464;48.266;14.188;2022-09-06T02:06:06;18.00;77.30
68476;DHT22;55464;48.266;14.188;2022-09-06T02:08:19;18.00;77.30
68476;DHT22;55464;48.266;14.188;2022-09-06T02:11:02;18.00;77.10
68476;DHT22;55464;48.266;14.188;2022-09-06T02:13:36;18.00;77.20
68476;DHT22;55464;48.266;14.188;2022-09-06T02:16:05;18.10;77.00
68476;DHT22;55464;48.266;14.188;2022-09-06T02:18:50;18.00;77.00
68476;DHT22;55464;48.266;14.188;2022-09-06T02:21:21;18.00;77.20
68476;DHT22;55464;48.266;14.188;2022-09-06T02:23:49;18.00;77.10
68476;DHT22;55464;48.266;14.188;2022-09-06T02:26:19;18.00;76.90
68476;DHT22;55464;48.266;14.188;2022-09-06T02:28:46;18.00;77.00
68476;DHT22;55464;48.266;14.188;2022-09-06T02:31:22;18.00;77.00
68476;DHT22;55464;48.266;14.188;2022-09-06T02:33:50;18.00;77.10
68476;DHT22;55464;48.266;14.188;2022-09-06T02:36:16;18.00;77.20
68476;DHT22;55464;48.266;14.188;2022-09-06T02:38:43;18.00;77.20
68476;DHT22;55464;48.266;14.188;2022-09-06T02:41:11;18.00;77.00
68476;DHT22;55464;48.266;14.188;2022-09-06T02:43:39;18.00;77.00
68476;DHT22;55464;48.266;14.188;2022-09-06T02:46:06;18.00;76.90
68476;DHT22;55464;48.266;14.188;2022-09-06T02:48:32;18.10;76.90
68476;DHT22;55464;48.266;14.188;2022-09-06T02:51:02;18.00;76.70
68476;DHT22;55464;48.266;14.188;2022-09-06T02:53:28;18.00;76.70
68476;DHT22;55464;48.266;14.188;2022-09-06T02:55:53;18.00;76.80
68476;DHT22;55464;48.266;14.188;2022-09-06T02:58:22;18.10;76.80
68476;DHT22;55464;48.266;14.188;2022-09-06T03:00:49;18.10;76.80
68476;DHT22;55464;48.266;14.188;2022-09-06T03:03:15;18.10;76.70
68476;DHT22;55464;48.266;14.188;2022-09-06T03:05:45;18.20;76.90
68476;DHT22;55464;48.266;14.188;2022-09-06T03:08:11;18.10;77.20
68476;DHT22;55464;48.266;14.188;2022-09-06T03:10:36;18.20;77.30
68476;DHT22;55464;48.266;14.188;2022-09-06T03:13:02;18.20;77.20
68476;DHT22;55464;48.266;14.188;2022-09-06T03:15:28;18.20;77.20
68476;DHT22;55464;48.266;14.188;2022-09-06T03:17:59;18.30;77.20
68476;DHT22;55464;48.266;14.188;2022-09-06T03:20:25;18.20;77.20
68476;DHT22;55464;48.266;14.188;2022-09-06T03:22:50;18.20;77.30
68476;DHT22;55464;48.266;14.188;2022-09-06T03:25:16;18.20;77.30
68476;DHT22;55464;48.266;14.188;2022-09-06T03:27:42;18.20;77.20
68476;DHT22;55464;48.266;14.188;2022-09-06T03:30:08;18.20;77.20
68476;DHT22;55464;48.266;14.188;2022-09-06T03:32:35;18.20;77.10
68476;DHT22;55464;48.266;14.188;2022-09-06T03:35:00;18.10;77.00
68476;DHT22;55464;48.266;14.188;2022-09-06T03:37:26;18.10;76.90
68476;DHT22;55464;48.266;14.188;2022-09-06T03:39:52;18.00;76.80
68476;DHT22;55464;48.266;14.188;2022-09-06T03:42:19;18.00;77.00
68476;DHT22;55464;48.266;14.188;2022-09-06T03:44:46;17.90;76.90
68476;DHT22;55464;48.266;14.188;2022-09-06T03:47:12;17.80;76.80
68476;DHT22;55464;48.266;14.188;2022-09-06T03:49:38;17.80;76.90
68476;DHT22;55464;48.266;14.188;2022-09-06T03:52:04;17.70;77.00
68476;DHT22;55464;48.266;14.188;2022-09-06T03:54:30;17.70;77.20
68476;DHT22;55464;48.266;14.188;2022-09-06T03:56:55;17.70;77.30
68476;DHT22;55464;48.266;14.188;2022-09-06T03:59:21;17.60;77.50
68476;DHT22;55464;48.266;14.188;2022-09-06T04:01:47;17.60;77.60
68476;DHT22;55464;48.266;14.188;2022-09-06T04:04:13;17.50;77.80
68476;DHT22;55464;48.266;14.188;2022-09-06T04:06:38;17.50;77.80
68476;DHT22;55464;48.266;14.188;2022-09-06T04:09:04;17.50;77.90
68476;DHT22;55464;48.266;14.188;2022-09-06T04:11:30;17.50;77.90
68476;DHT22;55464;48.266;14.188;2022-09-06T04:13:55;17.50;78.10
68476;DHT22;55464;48.266;14.188;2022-09-06T04:16:21;17.50;78.00
68476;DHT22;55464;48.266;14.188;2022-09-06T04:18:47;17.50;77.90
68476;DHT22;55464;48.266;14.188;2022-09-06T04:21:13;17.50;78.00
68476;DHT22;55464;48.266;14.188;2022-09-06T04:23:38;17.50;78.00
68476;DHT22;55464;48.266;14.188;2022-09-06T04:26:04;17.40;78.20
68476;DHT22;55464;48.266;14.188;2022-09-06T04:28:30;17.40;78.40
68476;DHT22;55464;48.266;14.188;2022-09-06T04:31:00;17.40;78.40
68476;DHT22;55464;48.266;14.188;2022-09-06T04:33:27;17.40;78.40
68476;DHT22;55464;48.266;14.188;2022-09-06T04:35:55;17.30;78.50
68476;DHT22;55464;48.266;14.188;2022-09-06T04:38:25;17.30;78.60
68476;DHT22;55464;48.266;14.188;2022-09-06T04:40:51;17.30;78.60
68476;DHT22;55464;48.266;14.188;2022-09-06T04:43:18;17.20;78.70
68476;DHT22;55464;48.266;14.188;2022-09-06T04:45:44;17.20;78.80
68476;DHT22;55464;48.266;14.188;2022-09-06T04:48:10;17.20;78.70
68476;DHT22;55464;48.266;14.188;2022-09-06T04:50:36;17.20;78.90
68476;DHT22;55464;48.266;14.188;2022-09-06T04:53:02;17.20;78.60
68476;DHT22;55464;48.266;14.188;2022-09-06T04:55:28;17.20;78.80
68476;DHT22;55464;48.266;14.188;2022-09-06T04:57:59;17.20;78.80
68476;DHT22;55464;48.266;14.188;2022-09-06T05:00:29;17.30;78.70
68476;DHT22;55464;48.266;14.188;2022-09-06T05:02:56;17.30;78.70
68476;DHT22;55464;48.266;14.188;2022-09-06T05:05:22;17.30;78.80
68476;DHT22;55464;48.266;14.188;2022-09-06T05:07:51;17.30;78.80
68476;DHT22;55464;48.266;14.188;2022-09-06T05:10:17;17.30;78.90
68476;DHT22;55464;48.266;14.188;2022-09-06T05:12:43;17.40;79.30
68476;DHT22;55464;48.266;14.188;2022-09-06T05:15:11;17.40;79.30
68476;DHT22;55464;48.266;14.188;2022-09-06T05:17:37;17.40;79.60
68476;DHT22;55464;48.266;14.188;2022-09-06T05:20:03;17.40;79.70
68476;DHT22;55464;48.266;14.188;2022-09-06T05:22:29;17.40;79.70
68476;DHT22;55464;48.266;14.188;2022-09-06T05:24:55;17.50;79.70
68476;DHT22;55464;48.266;14.188;2022-09-06T05:27:20;17.50;79.90
68476;DHT22;55464;48.266;14.188;2022-09-06T05:29:46;17.50;80.10
68476;DHT22;55464;48.266;14.188;2022-09-06T05:32:12;17.50;80.30
68476;DHT22;55464;48.266;14.188;2022-09-06T05:34:37;17.50;80.40
68476;DHT22;55464;48.266;14.188;2022-09-06T05:37:03;17.60;80.50
68476;DHT22;55464;48.266;14.188;2022-09-06T05:39:29;17.60;80.70
68476;DHT22;55464;48.266;14.188;2022-09-06T05:41:55;17.60;80.70
68476;DHT22;55464;48.266;14.188;2022-09-06T05:44:21;17.60;80.60
68476;DHT22;55464;48.266;14.188;2022-09-06T05:46:47;17.60;80.60
68476;DHT22;55464;48.266;14.188;2022-09-06T05:49:12;17.70;80.70
68476;DHT22;55464;48.266;14.188;2022-09-06T05:51:39;17.70;80.50
68476;DHT22;55464;48.266;14.188;2022-09-06T05:54:05;17.70;80.40
68476;DHT22;55464;48.266;14.188;2022-09-06T05:56:32;17.80;80.30
68476;DHT22;55464;48.266;14.188;2022-09-06T05:58:58;17.80;80.20
68476;DHT22;55464;48.266;14.188;2022-09-06T06:01:28;17.80;80.30
68476;DHT22;55464;48.266;14.188;2022-09-06T06:06:22;17.90;80.60
68476;DHT22;55464;48.266;14.188;2022-09-06T06:08:48;17.90;80.60
68476;DHT22;55464;48.266;14.188;2022-09-06T06:11:15;17.90;80.60
68476;DHT22;55464;48.266;14.188;2022-09-06T06:13:41;18.00;80.50
68476;DHT22;55464;48.266;14.188;2022-09-06T06:16:12;18.00;80.40
68476;DHT22;55464;48.266;14.188;2022-09-06T06:18:38;18.00;80.20
68476;DHT22;55464;48.266;14.188;2022-09-06T06:21:13;18.00;80.00
68476;DHT22;55464;48.266;14.188;2022-09-06T06:23:40;18.00;79.40
68476;DHT22;55464;48.266;14.188;2022-09-06T06:26:07;18.10;79.10
68476;DHT22;55464;48.266;14.188;2022-09-06T06:28:34;18.10;78.80
68476;DHT22;55464;48.266;14.188;2022-09-06T06:31:04;18.10;78.90
68476;DHT22;55464;48.266;14.188;2022-09-06T06:33:30;18.10;78.70
68476;DHT22;55464;48.266;14.188;2022-09-06T06:36:00;18.10;78.80
68476;DHT22;55464;48.266;14.188;2022-09-06T06:38:36;18.10;79.00
68476;DHT22;55464;48.266;14.188;2022-09-06T06:41:04;18.20;79.10
68476;DHT22;55464;48.266;14.188;2022-09-06T06:43:30;18.20;78.90
68476;DHT22;55464;48.266;14.188;2022-09-06T06:46:12;18.30;78.90
68476;DHT22;55464;48.266;14.188;2022-09-06T06:48:40;18.30;79.10
68476;DHT22;55464;48.266;14.188;2022-09-06T06:51:07;18.40;79.00
68476;DHT22;55464;48.266;14.188;2022-09-06T06:53:33;18.40;79.00
68476;DHT22;55464;48.266;14.188;2022-09-06T06:56:00;18.40;78.60
68476;DHT22;55464;48.266;14.188;2022-09-06T06:58:26;18.40;78.40
68476;DHT22;55464;48.266;14.188;2022-09-06T07:00:52;18.50;78.60
68476;DHT22;55464;48.266;14.188;2022-09-06T07:03:18;18.40;78.30
68476;DHT22;55464;48.266;14.188;2022-09-06T07:05:43;18.50;77.90
68476;DHT22;55464;48.266;14.188;2022-09-06T07:08:11;18.50;78.00
68476;DHT22;55464;48.266;14.188;2022-09-06T07:10:37;18.50;78.10
68476;DHT22;55464;48.266;14.188;2022-09-06T07:13:03;18.50;78.40
68476;DHT22;55464;48.266;14.188;2022-09-06T07:15:29;18.50;78.30
68476;DHT22;55464;48.266;14.188;2022-09-06T07:17:55;18.50;78.20
68476;DHT22;55464;48.266;14.188;2022-09-06T07:20:22;18.50;78.10
68476;DHT22;55464;48.266;14.188;2022-09-06T07:22:58;18.60;78.00
68476;DHT22;55464;48.266;14.188;2022-09-06T07:25:25;18.60;77.80
68476;DHT22;55464;48.266;14.188;2022-09-06T07:28:02;18.60;77.40
68476;DHT22;55464;48.266;14.188;2022-09-06T07:30:33;18.60;77.50
68476;DHT22;55464;48.266;14.188;2022-09-06T07:32:59;18.60;77.50
68476;DHT22;55464;48.266;14.188;2022-09-06T07:35:25;18.60;77.70
68476;DHT22;55464;48.266;14.188;2022-09-06T07:37:56;18.60;77.90
68476;DHT22;55464;48.266;14.188;2022-09-06T07:40:23;18.70;77.80
68476;DHT22;55464;48.266;14.188;2022-09-06T07:42:49;18.80;77.60
68476;DHT22;55464;48.266;14.188;2022-09-06T07:45:15;18.80;77.40
68476;DHT22;55464;48.266;14.188;2022-09-06T07:47:41;18.80;77.40
68476;DHT22;55464;48.266;14.188;2022-09-06T07:50:07;18.80;77.60
68476;DHT22;55464;48.266;14.188;2022-09-06T07:52:33;18.80;77.40
68476;DHT22;55464;48.266;14.188;2022-09-06T07:54:59;18.80;77.60
68476;DHT22;55464;48.266;14.188;2022-09-06T07:57:25;18.90;77.90
68476;DHT22;55464;48.266;14.188;2022-09-06T07:59:50;18.90;77.70
68476;DHT22;55464;48.266;14.188;2022-09-06T08:02:16;19.00;77.50
68476;DHT22;55464;48.266;14.188;2022-09-06T08:04:43;19.00;77.50
68476;DHT22;55464;48.266;14.188;2022-09-06T08:07:08;19.00;77.30
68476;DHT22;55464;48.266;14.188;2022-09-06T08:09:34;19.00;77.30
68476;DHT22;55464;48.266;14.188;2022-09-06T08:12:01;19.00;77.40
68476;DHT22;55464;48.266;14.188;2022-09-06T08:14:31;19.00;77.60
68476;DHT22;55464;48.266;14.188;2022-09-06T08:16:57;19.00;77.40
68476;DHT22;55464;48.266;14.188;2022-09-06T08:19:23;19.00;77.10
68476;DHT22;55464;48.266;14.188;2022-09-06T08:21:48;19.10;77.00
68476;DHT22;55464;48.266;14.188;2022-09-06T08:24:14;19.10;77.00
68476;DHT22;55464;48.266;14.188;2022-09-06T08:26:40;19.10;77.10
68476;DHT22;55464;48.266;14.188;2022-09-06T08:29:10;19.10;77.10
68476;DHT22;55464;48.266;14.188;2022-09-06T08:31:38;19.10;77.00
68476;DHT22;55464;48.266;14.188;2022-09-06T08:34:04;19.20;76.80
68476;DHT22;55464;48.266;14.188;2022-09-06T08:36:30;19.10;76.90
68476;DHT22;55464;48.266;14.188;2022-09-06T08:38:57;19.20;76.50
68476;DHT22;55464;48.266;14.188;2022-09-06T08:44:05;19.20;76.80
68476;DHT22;55464;48.266;14.188;2022-09-06T08:46:38;19.20;77.40
68476;DHT22;55464;48.266;14.188;2022-09-06T08:49:04;19.30;77.50
68476;DHT22;55464;48.266;14.188;2022-09-06T08:54:33;19.30;77.90
68476;DHT22;55464;48.266;14.188;2022-09-06T08:57:15;19.40;77.80
68476;DHT22;55464;48.266;14.188;2022-09-06T08:59:45;19.40;77.60
68476;DHT22;55464;48.266;14.188;2022-09-06T09:02:12;19.40;77.40
68476;DHT22;55464;48.266;14.188;2022-09-06T09:04:42;19.50;77.10
68476;DHT22;55464;48.266;14.188;2022-09-06T09:09:57;19.50;77.30
68476;DHT22;55464;48.266;14.188;2022-09-06T09:12:24;19.50;77.40
68476;DHT22;55464;48.266;14.188;2022-09-06T09:14:55;19.50;77.40
68476;DHT22;55464;48.266;14.188;2022-09-06T09:17:28;19.50;77.70
68476;DHT22;55464;48.266;14.188;2022-09-06T09:19:54;19.50;77.60
68476;DHT22;55464;48.266;14.188;2022-09-06T09:22:22;19.50;77.30
68476;DHT22;55464;48.266;14.188;2022-09-06T09:24:49;19.60;77.10
68476;DHT22;55464;48.266;14.188;2022-09-06T09:27:20;19.60;77.30
68476;DHT22;55464;48.266;14.188;2022-09-06T09:32:41;19.60;77.30
68476;DHT22;55464;48.266;14.188;2022-09-06T09:35:20;19.60;77.00
68476;DHT22;55464;48.266;14.188;2022-09-06T09:37:46;19.70;77.30
68476;DHT22;55464;48.266;14.188;2022-09-06T09:42:50;19.70;77.10
68476;DHT22;55464;48.266;14.188;2022-09-06T09:47:45;19.80;76.80
68476;DHT22;55464;48.266;14.188;2022-09-06T09:50:31;19.70;77.60
68476;DHT22;55464;48.266;14.188;2022-09-06T09:53:13;19.70;76.40
68476;DHT22;55464;48.266;14.188;2022-09-06T09:55:39;19.70;76.80
68476;DHT22;55464;48.266;14.188;2022-09-06T09:58:07;19.80;76.90
68476;DHT22;55464;48.266;14.188;2022-09-06T10:00:41;19.80;76.30
68476;DHT22;55464;48.266;14.188;2022-09-06T10:03:16;19.90;76.30
68476;DHT22;55464;48.266;14.188;2022-09-06T10:05:54;19.90;77.40
68476;DHT22;55464;48.266;14.188;2022-09-06T10:08:23;20.00;76.00
68476;DHT22;55464;48.266;14.188;2022-09-06T10:10:49;20.00;76.10
68476;DHT22;55464;48.266;14.188;2022-09-06T10:13:19;20.00;76.00
68476;DHT22;55464;48.266;14.188;2022-09-06T10:15:47;20.00;75.70
68476;DHT22;55464;48.266;14.188;2022-09-06T10:20:54;20.00;76.20
68476;DHT22;55464;48.266;14.188;2022-09-06T10:26:46;20.00;76.70
68476;DHT22;55464;48.266;14.188;2022-09-06T10:29:44;20.00;76.20
68476;DHT22;55464;48.266;14.188;2022-09-06T10:37:41;20.10;76.50
68476;DHT22;55464;48.266;14.188;2022-09-06T10:40:11;20.20;77.20
68476;DHT22;55464;48.266;14.188;2022-09-06T10:42:46;20.30;76.60
68476;DHT22;55464;48.266;14.188;2022-09-06T10:47:58;20.30;77.60
68476;DHT22;55464;48.266;14.188;2022-09-06T10:50:51;20.30;77.60
68476;DHT22;55464;48.266;14.188;2022-09-06T10:56:15;20.50;77.50
68476;DHT22;55464;48.266;14.188;2022-09-06T10:58:47;20.50;77.40
68476;DHT22;55464;48.266;14.188;2022-09-06T11:04:17;20.60;76.60
68476;DHT22;55464;48.266;14.188;2022-09-06T11:06:51;20.50;77.20
68476;DHT22;55464;48.266;14.188;2022-09-06T11:09:30;20.60;77.80
68476;DHT22;55464;48.266;14.188;2022-09-06T11:14:40;20.70;78.30
68476;DHT22;55464;48.266;14.188;2022-09-06T11:17:18;20.70;78.20
68476;DHT22;55464;48.266;14.188;2022-09-06T11:20:01;20.70;77.60
68476;DHT22;55464;48.266;14.188;2022-09-06T11:28:09;20.90;78.50
68476;DHT22;55464;48.266;14.188;2022-09-06T11:30:36;20.90;78.70
68476;DHT22;55464;48.266;14.188;2022-09-06T11:33:28;20.90;78.60
68476;DHT22;55464;48.266;14.188;2022-09-06T11:36:14;21.00;78.30
68476;DHT22;55464;48.266;14.188;2022-09-06T11:38:41;21.00;78.30
68476;DHT22;55464;48.266;14.188;2022-09-06T11:41:14;21.00;78.30
68476;DHT22;55464;48.266;14.188;2022-09-06T11:43:46;21.10;78.20
68476;DHT22;55464;48.266;14.188;2022-09-06T11:51:43;21.20;77.90
68476;DHT22;55464;48.266;14.188;2022-09-06T11:54:53;21.20;77.70
68476;DHT22;55464;48.266;14.188;2022-09-06T11:59:47;21.30;77.50
68476;DHT22;55464;48.266;14.188;2022-09-06T12:02:35;21.30;77.60
68476;DHT22;55464;48.266;14.188;2022-09-06T12:08:09;21.40;75.60
68476;DHT22;55464;48.266;14.188;2022-09-06T12:12:55;21.50;76.60
68476;DHT22;55464;48.266;14.188;2022-09-06T12:15:31;21.50;77.10
68476;DHT22;55464;48.266;14.188;2022-09-06T12:17:58;21.50;77.00
68476;DHT22;55464;48.266;14.188;2022-09-06T12:26:10;21.60;76.20
68476;DHT22;55464;48.266;14.188;2022-09-06T12:28:46;21.60;76.10
68476;DHT22;55464;48.266;14.188;2022-09-06T12:34:23;21.80;72.20
68476;DHT22;55464;48.266;14.188;2022-09-06T12:39:23;22.00;72.40
68476;DHT22;55464;48.266;14.188;2022-09-06T12:41:53;22.10;72.90
68476;DHT22;55464;48.266;14.188;2022-09-06T12:44:28;22.20;73.10
68476;DHT22;55464;48.266;14.188;2022-09-06T12:47:00;22.20;73.40
68476;DHT22;55464;48.266;14.188;2022-09-06T12:49:26;22.30;73.30
68476;DHT22;55464;48.266;14.188;2022-09-06T12:52:05;22.40;72.40
68476;DHT22;55464;48.266;14.188;2022-09-06T12:54:31;22.50;71.40
68476;DHT22;55464;48.266;14.188;2022-09-06T12:57:12;22.50;72.00
68476;DHT22;55464;48.266;14.188;2022-09-06T12:59:52;22.50;72.70
68476;DHT22;55464;48.266;14.188;2022-09-06T13:05:13;22.60;72.90
68476;DHT22;55464;48.266;14.188;2022-09-06T13:07:45;22.60;73.10
68476;DHT22;55464;48.266;14.188;2022-09-06T13:10:16;22.60;73.00
68476;DHT22;55464;48.266;14.188;2022-09-06T13:12:44;22.70;73.00
68476;DHT22;55464;48.266;14.188;2022-09-06T13:17:54;22.90;72.30
68476;DHT22;55464;48.266;14.188;2022-09-06T13:22:47;22.90;73.20
68476;DHT22;55464;48.266;14.188;2022-09-06T13:27:45;23.00;72.10
68476;DHT22;55464;48.266;14.188;2022-09-06T13:30:31;23.00;72.10
68476;DHT22;55464;48.266;14.188;2022-09-06T13:32:57;23.00;72.00
68476;DHT22;55464;48.266;14.188;2022-09-06T13:35:25;23.10;72.10
68476;DHT22;55464;48.266;14.188;2022-09-06T13:37:51;23.10;72.00
68476;DHT22;55464;48.266;14.188;2022-09-06T13:40:55;23.20;70.90
68476;DHT22;55464;48.266;14.188;2022-09-06T13:43:22;23.20;70.00
68476;DHT22;55464;48.266;14.188;2022-09-06T13:45:48;23.40;69.70
68476;DHT22;55464;48.266;14.188;2022-09-06T13:48:14;23.40;69.50
68476;DHT22;55464;48.266;14.188;2022-09-06T13:50:41;23.60;67.20
68476;DHT22;55464;48.266;14.188;2022-09-06T13:53:07;23.60;67.50
68476;DHT22;55464;48.266;14.188;2022-09-06T13:55:33;23.60;67.60
68476;DHT22;55464;48.266;14.188;2022-09-06T13:57:58;23.70;67.10
68476;DHT22;55464;48.266;14.188;2022-09-06T14:00:24;23.90;65.50
68476;DHT22;55464;48.266;14.188;2022-09-06T14:02:50;24.20;62.50
68476;DHT22;55464;48.266;14.188;2022-09-06T14:05:16;24.20;64.00
68476;DHT22;55464;48.266;14.188;2022-09-06T14:07:43;24.20;65.10
68476;DHT22;55464;48.266;14.188;2022-09-06T14:10:09;24.30;63.70
68476;DHT22;55464;48.266;14.188;2022-09-06T14:12:36;24.40;63.90
68476;DHT22;55464;48.266;14.188;2022-09-06T14:15:03;24.50;64.50
68476;DHT22;55464;48.266;14.188;2022-09-06T14:17:29;24.60;64.10
68476;DHT22;55464;48.266;14.188;2022-09-06T14:19:55;24.80;62.60
68476;DHT22;55464;48.266;14.188;2022-09-06T14:22:20;25.20;62.00
68476;DHT22;55464;48.266;14.188;2022-09-06T14:24:46;25.70;60.10
68476;DHT22;55464;48.266;14.188;2022-09-06T14:27:13;26.20;59.00
68476;DHT22;55464;48.266;14.188;2022-09-06T14:29:38;26.60;57.60
68476;DHT22;55464;48.266;14.188;2022-09-06T14:32:04;27.10;55.60
68476;DHT22;55464;48.266;14.188;2022-09-06T14:34:30;27.50;54.80
68476;DHT22;55464;48.266;14.188;2022-09-06T14:36:56;28.00;52.50
68476;DHT22;55464;48.266;14.188;2022-09-06T14:39:22;28.20;51.40
68476;DHT22;55464;48.266;14.188;2022-09-06T14:41:47;28.20;51.60
68476;DHT22;55464;48.266;14.188;2022-09-06T14:44:13;28.00;52.50
68476;DHT22;55464;48.266;14.188;2022-09-06T14:46:39;27.60;54.10
68476;DHT22;55464;48.266;14.188;2022-09-06T14:49:07;27.40;54.70
68476;DHT22;55464;48.266;14.188;2022-09-06T14:51:35;27.20;56.00
68476;DHT22;55464;48.266;14.188;2022-09-06T14:54:03;27.20;56.30
68476;DHT22;55464;48.266;14.188;2022-09-06T14:56:29;26.90;56.90
68476;DHT22;55464;48.266;14.188;2022-09-06T14:58:55;26.70;57.70
68476;DHT22;55464;48.266;14.188;2022-09-06T15:01:24;26.50;58.60
68476;DHT22;55464;48.266;14.188;2022-09-06T15:03:54;26.40;58.90
68476;DHT22;55464;48.266;14.188;2022-09-06T15:06:22;26.20;58.70
68476;DHT22;55464;48.266;14.188;2022-09-06T15:08:49;26.00;59.30
68476;DHT22;55464;48.266;14.188;2022-09-06T15:11:26;26.00;60.30
68476;DHT22;55464;48.266;14.188;2022-09-06T15:13:54;25.90;60.90
68476;DHT22;55464;48.266;14.188;2022-09-06T15:16:19;25.80;60.70
68476;DHT22;55464;48.266;14.188;2022-09-06T15:18:45;25.60;60.70
68476;DHT22;55464;48.266;14.188;2022-09-06T15:21:12;25.50;59.80
68476;DHT22;55464;48.266;14.188;2022-09-06T15:23:39;25.50;60.60
68476;DHT22;55464;48.266;14.188;2022-09-06T15:26:09;25.40;60.90
68476;DHT22;55464;48.266;14.188;2022-09-06T15:28:36;25.20;61.40
68476;DHT22;55464;48.266;14.188;2022-09-06T15:31:03;25.00;61.80
68476;DHT22;55464;48.266;14.188;2022-09-06T15:33:29;24.80;62.60
68476;DHT22;55464;48.266;14.188;2022-09-06T15:35:55;24.70;63.60
68476;DHT22;55464;48.266;14.188;2022-09-06T15:38:21;24.50;63.80
68476;DHT22;55464;48.266;14.188;2022-09-06T15:40:47;24.40;63.80
68476;DHT22;55464;48.266;14.188;2022-09-06T15:43:13;24.40;64.30
68476;DHT22;55464;48.266;14.188;2022-09-06T15:45:48;24.40;64.50
68476;DHT22;55464;48.266;14.188;2022-09-06T15:48:15;24.30;64.60
68476;DHT22;55464;48.266;14.188;2022-09-06T15:50:42;24.20;64.80
68476;DHT22;55464;48.266;14.188;2022-09-06T15:53:08;24.10;64.50
68476;DHT22;55464;48.266;14.188;2022-09-06T15:55:34;24.10;64.90
68476;DHT22;55464;48.266;14.188;2022-09-06T15:58:18;24.00;65.30
68476;DHT22;55464;48.266;14.188;2022-09-06T16:00:44;24.00;65.20
68476;DHT22;55464;48.266;14.188;2022-09-06T16:03:10;24.00;65.20
68476;DHT22;55464;48.266;14.188;2022-09-06T16:05:36;24.00;64.30
68476;DHT22;55464;48.266;14.188;2022-09-06T16:08:02;24.00;64.80
68476;DHT22;55464;48.266;14.188;2022-09-06T16:10:28;24.00;65.00
68476;DHT22;55464;48.266;14.188;2022-09-06T16:12:54;24.00;65.30
68476;DHT22;55464;48.266;14.188;2022-09-06T16:15:20;23.90;65.60
68476;DHT22;55464;48.266;14.188;2022-09-06T16:17:46;23.90;65.30
68476;DHT22;55464;48.266;14.188;2022-09-06T16:20:13;23.90;65.60
68476;DHT22;55464;48.266;14.188;2022-09-06T16:22:39;23.80;65.90
68476;DHT22;55464;48.266;14.188;2022-09-06T16:25:04;23.80;66.00
68476;DHT22;55464;48.266;14.188;2022-09-06T16:27:30;23.70;66.00
68476;DHT22;55464;48.266;14.188;2022-09-06T16:29:56;23.70;66.40
68476;DHT22;55464;48.266;14.188;2022-09-06T16:32:23;23.70;66.60
68476;DHT22;55464;48.266;14.188;2022-09-06T16:34:48;23.60;66.50
68476;DHT22;55464;48.266;14.188;2022-09-06T16:37:14;23.60;66.70
68476;DHT22;55464;48.266;14.188;2022-09-06T16:39:40;23.60;66.60
68476;DHT22;55464;48.266;14.188;2022-09-06T16:42:06;23.50;66.50
68476;DHT22;55464;48.266;14.188;2022-09-06T16:44:32;23.50;66.80
68476;DHT22;55464;48.266;14.188;2022-09-06T16:46:57;23.50;67.00
68476;DHT22;55464;48.266;14.188;2022-09-06T16:49:28;23.50;67.40
68476;DHT22;55464;48.266;14.188;2022-09-06T16:51:54;23.40;67.60
68476;DHT22;55464;48.266;14.188;2022-09-06T16:54:19;23.40;67.80
68476;DHT22;55464;48.266;14.188;2022-09-06T16:56:46;23.40;67.70
68476;DHT22;55464;48.266;14.188;2022-09-06T16:59:13;23.40;67.20
68476;DHT22;55464;48.266;14.188;2022-09-06T17:01:41;23.40;67.00
68476;DHT22;55464;48.266;14.188;2022-09-06T17:04:09;23.30;67.30
68476;DHT22;55464;48.266;14.188;2022-09-06T17:06:35;23.30;67.40
68476;DHT22;55464;48.266;14.188;2022-09-06T17:09:09;23.30;67.40
68476;DHT22;55464;48.266;14.188;2022-09-06T17:11:35;23.30;67.40
68476;DHT22;55464;48.266;14.188;2022-09-06T17:14:02;23.20;67.40
68476;DHT22;55464;48.266;14.188;2022-09-06T17:16:28;23.20;67.70
68476;DHT22;55464;48.266;14.188;2022-09-06T17:19:13;23.20;67.90
68476;DHT22;55464;48.266;14.188;2022-09-06T17:21:39;23.20;68.30